Chapel Hill, TN

10:08 PM CDT on September 21, 2014 (GMT -0500)
Smyrna | Change Station
CLOSE
Current Station
Airport
Location: Smyrna,
Elevation: 545 ft
Nearby Weather Stations

Elev 545 ft 36.01 °N, 86.52 °W | Updated 12 minutes ago

Clear
Clear
65 °F
Feels Like 65 °F
N
0
Wind Variable Wind from North

Today
High -- | Low -- °F
--% Chance of Precip.
Yesterday
High -- | Low -- °F
Precip. -- in
6:33 AM 6:44 PM
Waning Crescent, 4% visible
Pressure 30.06 in
Visibility 10.0 miles
Clouds Clear
Dew Point 52 °F
Humidity 63%
Rainfall 0.00 in
Snow Depth Not available.
UV 0 out of 12
Pollen 8.00 out of 12
Air Quality Not available.
Flu Activity Not available.
METAR KMQY 220256Z AUTO 00000KT 10SM CLR 18/11 A3005 RMK AO2 51031 T01830111 SLP180

More Conditions Fewer Conditions

Pressure 30.06 in
Visibility 10.0 miles
Clouds Clear
Dew Point 52 °F
Humidity 63%
Rainfall 0.00 in
Snow Depth Not available.
UV 0 out of 12
Pollen 8.00 out of 12
Air Quality Not available.
Flu Activity Not available.
METAR KMQY 220256Z AUTO 00000KT 10SM CLR 18/11 A3005 RMK AO2 51031 T01830111 SLP180

More Conditions Fewer Conditions

10-Day Weather Forecast

Almanac

Astronomy

Sep. 21, 2014 Rise Set
Actual Time 6:33 AM CDT 6:44 PM CDT
Civil Twilight 6:08 AM CDT 7:10 PM CDT
Nautical Twilight 5:38 AM CDT 7:39 PM CDT
Astronomical Twilight 5:08 AM CDT 8:10 PM CDT
Moon 4:10 AM CDT (9/21) 5:17 PM CDT (9/21)
Length of Visible Light 13h 02m
Length of Day
12h 11m
Tomorrow will be 2m 14s shorter.
Waning Crescent, 4% of the Moon is Illuminated
Today
Waning Crescent
Sep 24
New
Oct 1
First Quarter
Oct 8
Full
Oct 15
Last Quarter

Today's Extremes

State Highs State Lows

Community

WunderPhotos

Upload Photos

1,755,371 photos uploaded!

WunderBlogs® & News

Nearby

Snow Depth

Station Depth Elevation
No new snow has been reported.

Earthquake Activity

City Distance Mag. Time & Date
No recent earthquake activity has been reported nearby.
Minimum magnitude displayed is 2.5.

Coastal Water Temperatures

Place Temperature
No Stations Reporting

Nearby Weather Stations